sensor_id;sensor_type;location;lat;lon;timestamp;P1;durP1;ratioP1;P2;durP2;ratioP2
8663;SDS011;4369;47.842;13.096;2022-09-09T00:01:43;1.07;;;1.07;;
8663;SDS011;4369;47.842;13.096;2022-09-09T00:04:19;4.17;;;1.27;;
8663;SDS011;4369;47.842;13.096;2022-09-09T00:06:55;1.50;;;1.10;;
8663;SDS011;4369;47.842;13.096;2022-09-09T00:09:30;2.13;;;1.33;;
8663;SDS011;4369;47.842;13.096;2022-09-09T00:12:04;1.23;;;1.07;;
8663;SDS011;4369;47.842;13.096;2022-09-09T00:14:40;1.37;;;1.10;;
8663;SDS011;4369;47.842;13.096;2022-09-09T00:17:16;2.27;;;1.60;;
8663;SDS011;4369;47.842;13.096;2022-09-09T00:19:51;3.30;;;1.63;;
8663;SDS011;4369;47.842;13.096;2022-09-09T00:22:23;1.30;;;1.20;;
8663;SDS011;4369;47.842;13.096;2022-09-09T00:24:52;2.60;;;1.40;;
8663;SDS011;4369;47.842;13.096;2022-09-09T00:27:22;2.00;;;1.80;;
8663;SDS011;4369;47.842;13.096;2022-09-09T00:29:56;2.87;;;2.07;;
8663;SDS011;4369;47.842;13.096;2022-09-09T00:32:27;2.00;;;1.70;;
8663;SDS011;4369;47.842;13.096;2022-09-09T00:34:56;2.60;;;1.67;;
8663;SDS011;4369;47.842;13.096;2022-09-09T00:37:28;2.33;;;1.30;;
8663;SDS011;4369;47.842;13.096;2022-09-09T00:39:57;1.57;;;1.47;;
8663;SDS011;4369;47.842;13.096;2022-09-09T00:42:31;2.80;;;1.60;;
8663;SDS011;4369;47.842;13.096;2022-09-09T00:45:09;1.60;;;1.50;;
8663;SDS011;4369;47.842;13.096;2022-09-09T00:47:51;2.07;;;1.20;;
8663;SDS011;4369;47.842;13.096;2022-09-09T00:50:26;1.40;;;1.30;;
8663;SDS011;4369;47.842;13.096;2022-09-09T00:53:06;2.07;;;1.40;;
8663;SDS011;4369;47.842;13.096;2022-09-09T00:55:44;4.03;;;1.90;;
8663;SDS011;4369;47.842;13.096;2022-09-09T00:58:15;4.37;;;2.50;;
8663;SDS011;4369;47.842;13.096;2022-09-09T01:00:44;2.60;;;2.30;;
8663;SDS011;4369;47.842;13.096;2022-09-09T01:03:22;2.60;;;1.80;;
8663;SDS011;4369;47.842;13.096;2022-09-09T01:06:00;3.47;;;1.80;;
8663;SDS011;4369;47.842;13.096;2022-09-09T01:11:24;2.10;;;1.50;;
8663;SDS011;4369;47.842;13.096;2022-09-09T01:13:56;1.33;;;1.10;;
8663;SDS011;4369;47.842;13.096;2022-09-09T01:16:27;1.50;;;1.40;;
8663;SDS011;4369;47.842;13.096;2022-09-09T01:18:57;5.00;;;1.23;;
8663;SDS011;4369;47.842;13.096;2022-09-09T01:21:27;2.57;;;1.10;;
8663;SDS011;4369;47.842;13.096;2022-09-09T01:24:13;1.67;;;1.13;;
8663;SDS011;4369;47.842;13.096;2022-09-09T01:26:48;1.57;;;1.23;;
8663;SDS011;4369;47.842;13.096;2022-09-09T01:29:18;1.43;;;1.20;;
8663;SDS011;4369;47.842;13.096;2022-09-09T01:31:52;1.30;;;1.20;;
8663;SDS011;4369;47.842;13.096;2022-09-09T01:34:21;1.57;;;1.47;;
8663;SDS011;4369;47.842;13.096;2022-09-09T01:36:50;1.63;;;1.20;;
8663;SDS011;4369;47.842;13.096;2022-09-09T01:39:24;2.90;;;1.13;;
8663;SDS011;4369;47.842;13.096;2022-09-09T01:41:53;1.00;;;1.00;;
8663;SDS011;4369;47.842;13.096;2022-09-09T01:44:22;1.27;;;1.10;;
8663;SDS011;4369;47.842;13.096;2022-09-09T01:46:50;2.87;;;1.23;;
8663;SDS011;4369;47.842;13.096;2022-09-09T01:49:17;1.00;;;1.00;;
8663;SDS011;4369;47.842;13.096;2022-09-09T01:51:45;3.73;;;1.13;;
8663;SDS011;4369;47.842;13.096;2022-09-09T01:54:15;1.90;;;1.17;;
8663;SDS011;4369;47.842;13.096;2022-09-09T01:56:44;1.23;;;1.13;;
8663;SDS011;4369;47.842;13.096;2022-09-09T01:59:24;2.60;;;1.07;;
8663;SDS011;4369;47.842;13.096;2022-09-09T02:02:08;2.40;;;1.20;;
8663;SDS011;4369;47.842;13.096;2022-09-09T02:04:38;1.17;;;1.17;;
8663;SDS011;4369;47.842;13.096;2022-09-09T02:07:10;1.47;;;1.13;;
8663;SDS011;4369;47.842;13.096;2022-09-09T02:09:47;1.30;;;1.20;;
8663;SDS011;4369;47.842;13.096;2022-09-09T02:12:20;2.57;;;1.00;;
8663;SDS011;4369;47.842;13.096;2022-09-09T02:14:52;2.10;;;1.27;;
8663;SDS011;4369;47.842;13.096;2022-09-09T02:17:25;1.77;;;1.10;;
8663;SDS011;4369;47.842;13.096;2022-09-09T02:19:57;3.13;;;1.20;;
8663;SDS011;4369;47.842;13.096;2022-09-09T02:22:28;3.30;;;1.20;;
8663;SDS011;4369;47.842;13.096;2022-09-09T02:24:59;2.40;;;1.27;;
8663;SDS011;4369;47.842;13.096;2022-09-09T02:27:26;1.47;;;1.00;;
8663;SDS011;4369;47.842;13.096;2022-09-09T02:29:56;1.47;;;1.20;;
8663;SDS011;4369;47.842;13.096;2022-09-09T02:32:27;1.40;;;1.30;;
8663;SDS011;4369;47.842;13.096;2022-09-09T02:34:57;2.27;;;1.60;;
8663;SDS011;4369;47.842;13.096;2022-09-09T02:37:28;4.10;;;1.33;;
8663;SDS011;4369;47.842;13.096;2022-09-09T02:40:00;2.90;;;1.40;;
8663;SDS011;4369;47.842;13.096;2022-09-09T02:42:27;1.30;;;1.20;;
8663;SDS011;4369;47.842;13.096;2022-09-09T02:44:56;2.20;;;1.37;;
8663;SDS011;4369;47.842;13.096;2022-09-09T02:47:27;1.27;;;1.17;;
8663;SDS011;4369;47.842;13.096;2022-09-09T02:50:00;1.63;;;1.30;;
8663;SDS011;4369;47.842;13.096;2022-09-09T02:52:36;1.40;;;1.30;;
8663;SDS011;4369;47.842;13.096;2022-09-09T02:55:12;1.83;;;1.40;;
8663;SDS011;4369;47.842;13.096;2022-09-09T02:57:44;6.20;;;1.50;;
8663;SDS011;4369;47.842;13.096;2022-09-09T03:00:14;2.83;;;1.20;;
8663;SDS011;4369;47.842;13.096;2022-09-09T03:02:41;2.60;;;1.53;;
8663;SDS011;4369;47.842;13.096;2022-09-09T03:05:08;1.97;;;1.67;;
8663;SDS011;4369;47.842;13.096;2022-09-09T03:07:35;2.70;;;1.90;;
8663;SDS011;4369;47.842;13.096;2022-09-09T03:10:02;1.90;;;1.80;;
8663;SDS011;4369;47.842;13.096;2022-09-09T03:12:29;1.80;;;1.70;;
8663;SDS011;4369;47.842;13.096;2022-09-09T03:14:56;3.03;;;2.17;;
8663;SDS011;4369;47.842;13.096;2022-09-09T03:17:24;3.27;;;1.70;;
8663;SDS011;4369;47.842;13.096;2022-09-09T03:19:53;5.27;;;1.87;;
8663;SDS011;4369;47.842;13.096;2022-09-09T03:22:21;3.07;;;2.00;;
8663;SDS011;4369;47.842;13.096;2022-09-09T03:24:47;2.33;;;1.50;;
8663;SDS011;4369;47.842;13.096;2022-09-09T03:27:14;1.57;;;1.17;;
8663;SDS011;4369;47.842;13.096;2022-09-09T03:29:41;2.70;;;1.00;;
8663;SDS011;4369;47.842;13.096;2022-09-09T03:32:08;1.50;;;1.40;;
8663;SDS011;4369;47.842;13.096;2022-09-09T03:34:36;1.50;;;1.30;;
8663;SDS011;4369;47.842;13.096;2022-09-09T03:37:05;1.57;;;1.20;;
8663;SDS011;4369;47.842;13.096;2022-09-09T03:39:32;2.43;;;1.30;;
8663;SDS011;4369;47.842;13.096;2022-09-09T03:41:59;2.17;;;1.20;;
8663;SDS011;4369;47.842;13.096;2022-09-09T03:44:29;2.03;;;1.30;;
8663;SDS011;4369;47.842;13.096;2022-09-09T03:46:56;1.40;;;1.30;;
8663;SDS011;4369;47.842;13.096;2022-09-09T03:49:25;1.70;;;1.30;;
8663;SDS011;4369;47.842;13.096;2022-09-09T03:51:55;1.50;;;1.40;;
8663;SDS011;4369;47.842;13.096;2022-09-09T03:54:23;1.80;;;1.50;;
8663;SDS011;4369;47.842;13.096;2022-09-09T03:56:50;1.47;;;1.23;;
8663;SDS011;4369;47.842;13.096;2022-09-09T03:59:17;1.23;;;1.20;;
8663;SDS011;4369;47.842;13.096;2022-09-09T04:01:45;1.47;;;1.37;;
8663;SDS011;4369;47.842;13.096;2022-09-09T04:04:12;1.73;;;1.30;;
8663;SDS011;4369;47.842;13.096;2022-09-09T04:06:39;2.13;;;1.03;;
8663;SDS011;4369;47.842;13.096;2022-09-09T04:09:07;1.37;;;1.10;;
8663;SDS011;4369;47.842;13.096;2022-09-09T04:11:34;1.50;;;1.40;;
8663;SDS011;4369;47.842;13.096;2022-09-09T04:14:01;1.10;;;1.10;;
8663;SDS011;4369;47.842;13.096;2022-09-09T04:16:31;2.77;;;1.53;;
8663;SDS011;4369;47.842;13.096;2022-09-09T04:18:57;2.97;;;1.50;;
8663;SDS011;4369;47.842;13.096;2022-09-09T04:21:24;1.53;;;1.43;;
8663;SDS011;4369;47.842;13.096;2022-09-09T04:23:51;2.83;;;1.20;;
8663;SDS011;4369;47.842;13.096;2022-09-09T04:26:19;1.43;;;1.33;;
8663;SDS011;4369;47.842;13.096;2022-09-09T04:28:46;1.17;;;1.13;;
8663;SDS011;4369;47.842;13.096;2022-09-09T04:31:14;1.07;;;1.07;;
8663;SDS011;4369;47.842;13.096;2022-09-09T04:33:43;1.63;;;1.40;;
8663;SDS011;4369;47.842;13.096;2022-09-09T04:36:11;1.57;;;1.27;;
8663;SDS011;4369;47.842;13.096;2022-09-09T04:38:38;1.40;;;1.30;;
8663;SDS011;4369;47.842;13.096;2022-09-09T04:41:05;2.00;;;1.40;;
8663;SDS011;4369;47.842;13.096;2022-09-09T04:43:37;4.97;;;1.60;;
8663;SDS011;4369;47.842;13.096;2022-09-09T04:46:05;2.53;;;1.50;;
8663;SDS011;4369;47.842;13.096;2022-09-09T04:48:32;1.83;;;1.30;;
8663;SDS011;4369;47.842;13.096;2022-09-09T04:50:59;1.43;;;1.33;;
8663;SDS011;4369;47.842;13.096;2022-09-09T04:53:27;4.93;;;1.63;;
8663;SDS011;4369;47.842;13.096;2022-09-09T04:56:00;2.20;;;2.10;;
8663;SDS011;4369;47.842;13.096;2022-09-09T04:58:27;4.40;;;2.17;;
8663;SDS011;4369;47.842;13.096;2022-09-09T05:00:55;1.67;;;1.57;;
8663;SDS011;4369;47.842;13.096;2022-09-09T05:03:29;2.87;;;1.47;;
8663;SDS011;4369;47.842;13.096;2022-09-09T05:06:01;2.77;;;1.40;;
8663;SDS011;4369;47.842;13.096;2022-09-09T05:08:29;1.63;;;1.53;;
8663;SDS011;4369;47.842;13.096;2022-09-09T05:10:56;2.40;;;1.60;;
8663;SDS011;4369;47.842;13.096;2022-09-09T05:13:23;3.43;;;1.50;;
8663;SDS011;4369;47.842;13.096;2022-09-09T05:15:51;2.85;;;1.85;;
8663;SDS011;4369;47.842;13.096;2022-09-09T05:18:20;2.15;;;1.75;;
8663;SDS011;4369;47.842;13.096;2022-09-09T05:20:47;2.03;;;1.67;;
8663;SDS011;4369;47.842;13.096;2022-09-09T05:23:14;2.53;;;1.80;;
8663;SDS011;4369;47.842;13.096;2022-09-09T05:25:41;1.80;;;1.70;;
8663;SDS011;4369;47.842;13.096;2022-09-09T05:28:08;1.17;;;1.17;;
8663;SDS011;4369;47.842;13.096;2022-09-09T05:30:36;2.63;;;1.50;;
8663;SDS011;4369;47.842;13.096;2022-09-09T05:33:03;1.90;;;1.10;;
8663;SDS011;4369;47.842;13.096;2022-09-09T05:35:32;1.23;;;1.17;;
8663;SDS011;4369;47.842;13.096;2022-09-09T05:37:59;1.83;;;1.20;;
8663;SDS011;4369;47.842;13.096;2022-09-09T05:40:26;4.53;;;1.50;;
8663;SDS011;4369;47.842;13.096;2022-09-09T05:42:53;2.00;;;1.80;;
8663;SDS011;4369;47.842;13.096;2022-09-09T05:45:20;1.67;;;1.57;;
8663;SDS011;4369;47.842;13.096;2022-09-09T05:47:50;1.67;;;1.57;;
8663;SDS011;4369;47.842;13.096;2022-09-09T05:50:18;1.43;;;1.33;;
8663;SDS011;4369;47.842;13.096;2022-09-09T05:52:46;1.90;;;1.80;;
8663;SDS011;4369;47.842;13.096;2022-09-09T05:55:14;2.70;;;1.60;;
8663;SDS011;4369;47.842;13.096;2022-09-09T05:57:42;1.60;;;1.47;;
8663;SDS011;4369;47.842;13.096;2022-09-09T06:00:14;1.57;;;1.47;;
8663;SDS011;4369;47.842;13.096;2022-09-09T06:02:41;1.90;;;1.40;;
8663;SDS011;4369;47.842;13.096;2022-09-09T06:05:08;1.83;;;1.60;;
8663;SDS011;4369;47.842;13.096;2022-09-09T06:07:36;3.65;;;1.65;;
8663;SDS011;4369;47.842;13.096;2022-09-09T06:10:08;1.97;;;1.50;;
8663;SDS011;4369;47.842;13.096;2022-09-09T06:12:35;1.40;;;1.30;;
8663;SDS011;4369;47.842;13.096;2022-09-09T06:15:02;2.83;;;1.53;;
8663;SDS011;4369;47.842;13.096;2022-09-09T06:17:30;3.20;;;1.50;;
8663;SDS011;4369;47.842;13.096;2022-09-09T06:19:57;1.97;;;1.37;;
8663;SDS011;4369;47.842;13.096;2022-09-09T06:22:24;2.17;;;1.90;;
8663;SDS011;4369;47.842;13.096;2022-09-09T06:24:51;5.47;;;2.40;;
8663;SDS011;4369;47.842;13.096;2022-09-09T06:27:20;3.73;;;3.00;;
8663;SDS011;4369;47.842;13.096;2022-09-09T06:29:46;1.70;;;1.60;;
8663;SDS011;4369;47.842;13.096;2022-09-09T06:32:13;1.63;;;1.53;;
8663;SDS011;4369;47.842;13.096;2022-09-09T06:34:40;1.80;;;1.70;;
8663;SDS011;4369;47.842;13.096;2022-09-09T06:37:07;1.80;;;1.70;;
8663;SDS011;4369;47.842;13.096;2022-09-09T06:39:34;3.73;;;1.93;;
8663;SDS011;4369;47.842;13.096;2022-09-09T06:42:01;2.93;;;1.80;;
8663;SDS011;4369;47.842;13.096;2022-09-09T06:44:29;2.40;;;1.60;;
8663;SDS011;4369;47.842;13.096;2022-09-09T06:46:57;2.60;;;1.73;;
8663;SDS011;4369;47.842;13.096;2022-09-09T06:49:24;2.00;;;1.83;;
8663;SDS011;4369;47.842;13.096;2022-09-09T06:51:51;2.50;;;1.60;;
8663;SDS011;4369;47.842;13.096;2022-09-09T06:54:18;2.20;;;1.60;;
8663;SDS011;4369;47.842;13.096;2022-09-09T06:56:47;3.87;;;1.70;;
8663;SDS011;4369;47.842;13.096;2022-09-09T06:59:14;1.63;;;1.53;;
8663;SDS011;4369;47.842;13.096;2022-09-09T07:01:42;3.17;;;1.70;;
8663;SDS011;4369;47.842;13.096;2022-09-09T07:04:10;1.60;;;1.50;;
8663;SDS011;4369;47.842;13.096;2022-09-09T07:06:39;2.57;;;2.20;;
8663;SDS011;4369;47.842;13.096;2022-09-09T07:09:09;2.07;;;1.60;;
8663;SDS011;4369;47.842;13.096;2022-09-09T07:11:37;1.97;;;1.57;;
8663;SDS011;4369;47.842;13.096;2022-09-09T07:14:06;3.33;;;1.57;;
8663;SDS011;4369;47.842;13.096;2022-09-09T07:16:34;1.73;;;1.63;;
8663;SDS011;4369;47.842;13.096;2022-09-09T07:19:03;2.77;;;1.47;;
8663;SDS011;4369;47.842;13.096;2022-09-09T07:21:30;2.63;;;1.77;;
8663;SDS011;4369;47.842;13.096;2022-09-09T07:23:58;2.83;;;1.60;;
8663;SDS011;4369;47.842;13.096;2022-09-09T07:26:27;3.83;;;2.00;;
8663;SDS011;4369;47.842;13.096;2022-09-09T07:28:55;2.03;;;1.87;;
8663;SDS011;4369;47.842;13.096;2022-09-09T07:31:23;2.00;;;1.80;;
8663;SDS011;4369;47.842;13.096;2022-09-09T07:33:51;1.73;;;1.53;;
8663;SDS011;4369;47.842;13.096;2022-09-09T07:36:20;1.37;;;1.27;;
8663;SDS011;4369;47.842;13.096;2022-09-09T07:38:50;3.80;;;1.70;;
8663;SDS011;4369;47.842;13.096;2022-09-09T07:41:18;2.37;;;2.00;;
8663;SDS011;4369;47.842;13.096;2022-09-09T07:43:47;2.40;;;1.70;;
8663;SDS011;4369;47.842;13.096;2022-09-09T07:46:15;1.70;;;1.60;;
8663;SDS011;4369;47.842;13.096;2022-09-09T07:48:46;1.70;;;1.60;;
8663;SDS011;4369;47.842;13.096;2022-09-09T07:51:17;3.83;;;1.80;;
8663;SDS011;4369;47.842;13.096;2022-09-09T07:53:48;6.03;;;4.47;;
8663;SDS011;4369;47.842;13.096;2022-09-09T07:56:18;6.63;;;4.50;;
8663;SDS011;4369;47.842;13.096;2022-09-09T07:58:48;5.10;;;3.97;;
8663;SDS011;4369;47.842;13.096;2022-09-09T08:01:16;4.07;;;2.53;;
8663;SDS011;4369;47.842;13.096;2022-09-09T08:03:45;4.17;;;2.80;;
8663;SDS011;4369;47.842;13.096;2022-09-09T08:06:13;3.90;;;2.60;;
8663;SDS011;4369;47.842;13.096;2022-09-09T08:08:40;4.97;;;3.80;;
8663;SDS011;4369;47.842;13.096;2022-09-09T08:11:10;4.80;;;3.03;;
8663;SDS011;4369;47.842;13.096;2022-09-09T08:13:41;3.80;;;2.60;;
8663;SDS011;4369;47.842;13.096;2022-09-09T08:16:09;4.00;;;2.20;;
8663;SDS011;4369;47.842;13.096;2022-09-09T08:18:37;2.83;;;1.97;;
8663;SDS011;4369;47.842;13.096;2022-09-09T08:21:05;1.67;;;1.53;;
8663;SDS011;4369;47.842;13.096;2022-09-09T08:23:34;3.60;;;2.20;;
8663;SDS011;4369;47.842;13.096;2022-09-09T08:26:04;5.90;;;2.37;;
8663;SDS011;4369;47.842;13.096;2022-09-09T08:28:35;3.37;;;2.03;;
8663;SDS011;4369;47.842;13.096;2022-09-09T08:31:09;3.30;;;1.83;;
8663;SDS011;4369;47.842;13.096;2022-09-09T08:33:38;1.87;;;1.67;;
8663;SDS011;4369;47.842;13.096;2022-09-09T08:36:06;2.10;;;1.80;;
8663;SDS011;4369;47.842;13.096;2022-09-09T08:38:36;1.90;;;1.70;;
8663;SDS011;4369;47.842;13.096;2022-09-09T08:41:09;5.00;;;2.40;;
8663;SDS011;4369;47.842;13.096;2022-09-09T08:44:00;4.70;;;1.97;;
8663;SDS011;4369;47.842;13.096;2022-09-09T08:46:35;5.43;;;2.10;;
8663;SDS011;4369;47.842;13.096;2022-09-09T08:49:14;5.83;;;2.73;;
8663;SDS011;4369;47.842;13.096;2022-09-09T08:51:48;5.20;;;2.70;;
8663;SDS011;4369;47.842;13.096;2022-09-09T08:54:15;4.23;;;2.00;;
8663;SDS011;4369;47.842;13.096;2022-09-09T08:56:43;3.40;;;2.40;;
8663;SDS011;4369;47.842;13.096;2022-09-09T08:59:13;3.53;;;2.13;;
8663;SDS011;4369;47.842;13.096;2022-09-09T09:01:49;3.40;;;2.57;;
8663;SDS011;4369;47.842;13.096;2022-09-09T09:04:27;6.13;;;2.50;;
8663;SDS011;4369;47.842;13.096;2022-09-09T09:07:05;4.10;;;2.40;;
8663;SDS011;4369;47.842;13.096;2022-09-09T09:09:44;3.37;;;1.93;;
8663;SDS011;4369;47.842;13.096;2022-09-09T09:12:25;3.10;;;1.80;;
8663;SDS011;4369;47.842;13.096;2022-09-09T09:14:56;2.43;;;1.50;;
8663;SDS011;4369;47.842;13.096;2022-09-09T09:17:25;4.40;;;1.80;;
8663;SDS011;4369;47.842;13.096;2022-09-09T09:19:56;3.93;;;1.83;;
8663;SDS011;4369;47.842;13.096;2022-09-09T09:22:26;1.63;;;1.53;;
8663;SDS011;4369;47.842;13.096;2022-09-09T09:25:00;4.30;;;2.00;;
8663;SDS011;4369;47.842;13.096;2022-09-09T09:27:36;4.40;;;2.20;;
8663;SDS011;4369;47.842;13.096;2022-09-09T09:30:12;3.20;;;2.07;;
8663;SDS011;4369;47.842;13.096;2022-09-09T09:32:43;5.90;;;2.00;;
8663;SDS011;4369;47.842;13.096;2022-09-09T09:35:16;2.60;;;1.47;;
8663;SDS011;4369;47.842;13.096;2022-09-09T09:37:43;6.23;;;2.47;;
8663;SDS011;4369;47.842;13.096;2022-09-09T09:40:12;2.30;;;1.70;;
8663;SDS011;4369;47.842;13.096;2022-09-09T09:42:47;2.77;;;2.07;;
8663;SDS011;4369;47.842;13.096;2022-09-09T09:45:18;4.30;;;2.90;;
8663;SDS011;4369;47.842;13.096;2022-09-09T09:48:00;6.87;;;3.67;;
8663;SDS011;4369;47.842;13.096;2022-09-09T09:50:28;8.03;;;6.33;;
8663;SDS011;4369;47.842;13.096;2022-09-09T09:52:57;5.50;;;4.60;;
8663;SDS011;4369;47.842;13.096;2022-09-09T09:55:26;7.60;;;3.77;;
8663;SDS011;4369;47.842;13.096;2022-09-09T09:58:00;4.03;;;3.47;;
8663;SDS011;4369;47.842;13.096;2022-09-09T10:00:30;2.40;;;2.20;;
8663;SDS011;4369;47.842;13.096;2022-09-09T10:02:58;6.93;;;4.57;;
8663;SDS011;4369;47.842;13.096;2022-09-09T10:05:29;6.30;;;3.73;;
8663;SDS011;4369;47.842;13.096;2022-09-09T10:08:00;5.30;;;1.63;;
8663;SDS011;4369;47.842;13.096;2022-09-09T10:10:32;4.43;;;2.30;;
8663;SDS011;4369;47.842;13.096;2022-09-09T10:13:08;6.33;;;3.73;;
8663;SDS011;4369;47.842;13.096;2022-09-09T10:15:45;6.20;;;3.07;;
8663;SDS011;4369;47.842;13.096;2022-09-09T10:18:24;5.90;;;3.00;;
8663;SDS011;4369;47.842;13.096;2022-09-09T10:21:15;4.47;;;2.47;;
8663;SDS011;4369;47.842;13.096;2022-09-09T10:23:55;2.93;;;1.90;;
8663;SDS011;4369;47.842;13.096;2022-09-09T10:26:43;2.20;;;2.00;;
8663;SDS011;4369;47.842;13.096;2022-09-09T10:29:20;1.80;;;1.70;;
8663;SDS011;4369;47.842;13.096;2022-09-09T10:31:59;6.20;;;2.93;;
8663;SDS011;4369;47.842;13.096;2022-09-09T10:34:41;2.20;;;2.00;;
8663;SDS011;4369;47.842;13.096;2022-09-09T10:37:23;3.13;;;1.83;;
8663;SDS011;4369;47.842;13.096;2022-09-09T10:40:08;4.13;;;2.40;;
8663;SDS011;4369;47.842;13.096;2022-09-09T10:42:49;2.10;;;1.90;;
8663;SDS011;4369;47.842;13.096;2022-09-09T10:45:17;5.20;;;2.50;;
8663;SDS011;4369;47.842;13.096;2022-09-09T10:47:54;3.47;;;2.53;;
8663;SDS011;4369;47.842;13.096;2022-09-09T10:50:46;7.53;;;2.50;;
8663;SDS011;4369;47.842;13.096;2022-09-09T10:53:20;4.17;;;2.70;;
8663;SDS011;4369;47.842;13.096;2022-09-09T10:55:58;4.77;;;2.63;;
8663;SDS011;4369;47.842;13.096;2022-09-09T10:58:31;4.30;;;2.33;;
8663;SDS011;4369;47.842;13.096;2022-09-09T11:01:07;2.40;;;1.80;;
8663;SDS011;4369;47.842;13.096;2022-09-09T11:03:43;2.47;;;2.23;;
8663;SDS011;4369;47.842;13.096;2022-09-09T11:06:16;4.23;;;2.20;;
8663;SDS011;4369;47.842;13.096;2022-09-09T11:08:45;4.13;;;2.10;;
8663;SDS011;4369;47.842;13.096;2022-09-09T11:11:15;3.23;;;2.27;;
8663;SDS011;4369;47.842;13.096;2022-09-09T11:13:46;6.60;;;3.33;;
8663;SDS011;4369;47.842;13.096;2022-09-09T11:16:22;7.07;;;2.80;;
8663;SDS011;4369;47.842;13.096;2022-09-09T11:18:55;3.27;;;2.20;;
8663;SDS011;4369;47.842;13.096;2022-09-09T11:21:28;1.87;;;1.57;;
8663;SDS011;4369;47.842;13.096;2022-09-09T11:23:57;2.63;;;1.40;;
8663;SDS011;4369;47.842;13.096;2022-09-09T11:26:30;1.90;;;1.70;;
8663;SDS011;4369;47.842;13.096;2022-09-09T11:29:06;4.53;;;1.90;;
8663;SDS011;4369;47.842;13.096;2022-09-09T11:31:52;3.27;;;1.60;;
8663;SDS011;4369;47.842;13.096;2022-09-09T11:34:38;3.17;;;1.87;;
8663;SDS011;4369;47.842;13.096;2022-09-09T11:37:15;1.60;;;1.50;;
8663;SDS011;4369;47.842;13.096;2022-09-09T11:40:09;2.30;;;1.23;;
8663;SDS011;4369;47.842;13.096;2022-09-09T11:42:43;3.10;;;1.20;;
8663;SDS011;4369;47.842;13.096;2022-09-09T11:45:11;3.50;;;1.73;;
8663;SDS011;4369;47.842;13.096;2022-09-09T11:47:52;1.40;;;1.30;;
8663;SDS011;4369;47.842;13.096;2022-09-09T11:53:19;1.40;;;1.23;;
8663;SDS011;4369;47.842;13.096;2022-09-09T11:55:59;2.20;;;1.50;;
8663;SDS011;4369;47.842;13.096;2022-09-09T11:58:33;2.20;;;1.60;;
8663;SDS011;4369;47.842;13.096;2022-09-09T12:01:15;6.83;;;2.00;;
8663;SDS011;4369;47.842;13.096;2022-09-09T12:06:58;5.63;;;2.00;;
8663;SDS011;4369;47.842;13.096;2022-09-09T12:09:43;3.80;;;1.80;;
8663;SDS011;4369;47.842;13.096;2022-09-09T12:12:24;5.47;;;1.70;;
8663;SDS011;4369;47.842;13.096;2022-09-09T12:14:56;3.30;;;1.67;;
8663;SDS011;4369;47.842;13.096;2022-09-09T12:17:28;1.90;;;1.53;;
8663;SDS011;4369;47.842;13.096;2022-09-09T12:20:00;2.03;;;1.70;;
8663;SDS011;4369;47.842;13.096;2022-09-09T12:22:35;2.10;;;1.90;;
8663;SDS011;4369;47.842;13.096;2022-09-09T12:25:15;1.97;;;1.77;;
8663;SDS011;4369;47.842;13.096;2022-09-09T12:27:50;4.13;;;2.20;;
8663;SDS011;4369;47.842;13.096;2022-09-09T12:30:29;2.43;;;2.23;;
8663;SDS011;4369;47.842;13.096;2022-09-09T12:33:02;2.93;;;2.10;;
8663;SDS011;4369;47.842;13.096;2022-09-09T12:35:35;3.20;;;2.10;;
8663;SDS011;4369;47.842;13.096;2022-09-09T12:38:05;2.30;;;2.10;;
8663;SDS011;4369;47.842;13.096;2022-09-09T12:40:37;7.20;;;2.40;;
8663;SDS011;4369;47.842;13.096;2022-09-09T12:43:15;3.93;;;2.30;;
8663;SDS011;4369;47.842;13.096;2022-09-09T12:45:44;4.27;;;2.47;;
8663;SDS011;4369;47.842;13.096;2022-09-09T12:48:12;3.13;;;2.20;;
8663;SDS011;4369;47.842;13.096;2022-09-09T12:50:43;3.90;;;2.00;;
8663;SDS011;4369;47.842;13.096;2022-09-09T12:53:15;2.17;;;1.90;;
8663;SDS011;4369;47.842;13.096;2022-09-09T12:55:55;6.30;;;2.17;;
8663;SDS011;4369;47.842;13.096;2022-09-09T12:58:23;3.77;;;2.40;;
8663;SDS011;4369;47.842;13.096;2022-09-09T13:00:54;4.13;;;2.40;;
8663;SDS011;4369;47.842;13.096;2022-09-09T13:03:22;6.27;;;2.80;;
8663;SDS011;4369;47.842;13.096;2022-09-09T13:05:50;3.73;;;2.10;;
8663;SDS011;4369;47.842;13.096;2022-09-09T13:08:20;3.60;;;2.00;;
8663;SDS011;4369;47.842;13.096;2022-09-09T13:10:47;5.43;;;2.27;;
8663;SDS011;4369;47.842;13.096;2022-09-09T13:13:21;4.70;;;2.50;;
8663;SDS011;4369;47.842;13.096;2022-09-09T13:15:50;4.63;;;2.13;;
8663;SDS011;4369;47.842;13.096;2022-09-09T13:18:20;3.60;;;2.40;;
8663;SDS011;4369;47.842;13.096;2022-09-09T13:20:48;6.10;;;2.30;;
8663;SDS011;4369;47.842;13.096;2022-09-09T13:23:18;2.40;;;1.83;;
8663;SDS011;4369;47.842;13.096;2022-09-09T13:25:54;2.87;;;2.03;;
8663;SDS011;4369;47.842;13.096;2022-09-09T13:28:23;2.27;;;1.90;;
8663;SDS011;4369;47.842;13.096;2022-09-09T13:30:58;3.37;;;2.20;;
8663;SDS011;4369;47.842;13.096;2022-09-09T13:33:30;5.27;;;2.47;;
8663;SDS011;4369;47.842;13.096;2022-09-09T13:35:59;2.67;;;2.20;;
8663;SDS011;4369;47.842;13.096;2022-09-09T13:38:31;3.90;;;2.43;;
8663;SDS011;4369;47.842;13.096;2022-09-09T13:41:02;12.53;;;11.60;;
8663;SDS011;4369;47.842;13.096;2022-09-09T13:43:31;4.40;;;4.00;;
8663;SDS011;4369;47.842;13.096;2022-09-09T13:46:04;4.97;;;2.80;;
8663;SDS011;4369;47.842;13.096;2022-09-09T13:48:53;3.33;;;2.90;;
8663;SDS011;4369;47.842;13.096;2022-09-09T13:51:22;3.30;;;2.80;;
8663;SDS011;4369;47.842;13.096;2022-09-09T13:54:04;3.23;;;2.60;;
8663;SDS011;4369;47.842;13.096;2022-09-09T13:56:32;5.83;;;3.00;;
8663;SDS011;4369;47.842;13.096;2022-09-09T13:58:59;4.80;;;2.43;;
8663;SDS011;4369;47.842;13.096;2022-09-09T14:01:26;2.73;;;2.47;;
8663;SDS011;4369;47.842;13.096;2022-09-09T14:03:53;3.03;;;2.27;;
8663;SDS011;4369;47.842;13.096;2022-09-09T14:06:20;4.00;;;3.13;;
8663;SDS011;4369;47.842;13.096;2022-09-09T14:08:48;4.00;;;3.00;;
8663;SDS011;4369;47.842;13.096;2022-09-09T14:11:17;6.53;;;3.33;;
8663;SDS011;4369;47.842;13.096;2022-09-09T14:13:46;5.57;;;3.10;;
8663;SDS011;4369;47.842;13.096;2022-09-09T14:16:14;3.33;;;2.90;;
8663;SDS011;4369;47.842;13.096;2022-09-09T14:18:42;5.67;;;3.77;;
8663;SDS011;4369;47.842;13.096;2022-09-09T14:24:02;3.83;;;3.43;;
8663;SDS011;4369;47.842;13.096;2022-09-09T14:26:31;6.20;;;3.70;;
8663;SDS011;4369;47.842;13.096;2022-09-09T14:28:58;3.80;;;3.10;;
8663;SDS011;4369;47.842;13.096;2022-09-09T14:31:25;8.40;;;4.10;;
8663;SDS011;4369;47.842;13.096;2022-09-09T14:33:52;4.47;;;3.40;;
8663;SDS011;4369;47.842;13.096;2022-09-09T14:36:19;4.10;;;3.60;;
8663;SDS011;4369;47.842;13.096;2022-09-09T14:38:46;3.37;;;3.03;;
8663;SDS011;4369;47.842;13.096;2022-09-09T14:41:13;6.30;;;2.80;;
8663;SDS011;4369;47.842;13.096;2022-09-09T14:43:44;4.03;;;3.30;;
8663;SDS011;4369;47.842;13.096;2022-09-09T14:46:12;6.23;;;3.67;;
8663;SDS011;4369;47.842;13.096;2022-09-09T14:48:40;5.00;;;3.10;;
8663;SDS011;4369;47.842;13.096;2022-09-09T14:51:08;3.47;;;2.87;;
8663;SDS011;4369;47.842;13.096;2022-09-09T14:53:37;8.97;;;3.60;;
8663;SDS011;4369;47.842;13.096;2022-09-09T14:56:06;4.23;;;3.47;;
8663;SDS011;4369;47.842;13.096;2022-09-09T14:58:33;3.97;;;2.70;;
8663;SDS011;4369;47.842;13.096;2022-09-09T15:01:05;2.40;;;2.20;;
8663;SDS011;4369;47.842;13.096;2022-09-09T15:03:35;2.43;;;2.13;;
8663;SDS011;4369;47.842;13.096;2022-09-09T15:06:05;2.93;;;1.90;;
8663;SDS011;4369;47.842;13.096;2022-09-09T15:08:33;2.90;;;2.00;;
8663;SDS011;4369;47.842;13.096;2022-09-09T15:11:00;2.17;;;2.00;;
8663;SDS011;4369;47.842;13.096;2022-09-09T15:13:28;2.97;;;1.83;;
8663;SDS011;4369;47.842;13.096;2022-09-09T15:15:55;1.87;;;1.70;;
8663;SDS011;4369;47.842;13.096;2022-09-09T15:18:24;4.77;;;2.30;;
8663;SDS011;4369;47.842;13.096;2022-09-09T15:20:51;4.63;;;2.17;;
8663;SDS011;4369;47.842;13.096;2022-09-09T15:23:18;1.80;;;1.53;;
8663;SDS011;4369;47.842;13.096;2022-09-09T15:25:51;1.60;;;1.50;;
8663;SDS011;4369;47.842;13.096;2022-09-09T15:28:19;1.63;;;1.53;;
8663;SDS011;4369;47.842;13.096;2022-09-09T15:30:47;1.50;;;1.40;;
8663;SDS011;4369;47.842;13.096;2022-09-09T15:33:15;1.77;;;1.67;;
8663;SDS011;4369;47.842;13.096;2022-09-09T15:35:43;1.67;;;1.57;;